createdAt,value
2023-04-18T00:01:06.577Z,83.46
2023-04-18T00:03:33.299Z,84.52
2023-04-18T00:06:01.244Z,84.42
2023-04-18T00:08:27.782Z,85.05
2023-04-18T00:10:54.309Z,84.58
2023-04-18T00:13:20.841Z,84.94
2023-04-18T00:15:47.443Z,85.20
2023-04-18T00:18:14.237Z,84.98
2023-04-18T00:20:40.770Z,85.52
2023-04-18T00:23:07.317Z,85.44
2023-04-18T00:25:33.876Z,85.84
2023-04-18T00:28:00.431Z,86.61
2023-04-18T00:30:26.941Z,86.28
2023-04-18T00:32:53.474Z,86.51
2023-04-18T00:35:20.100Z,86.66
2023-04-18T00:37:46.642Z,86.40
2023-04-18T00:40:13.330Z,86.60
2023-04-18T00:42:39.894Z,86.69
2023-04-18T00:45:06.817Z,86.88
2023-04-18T00:47:33.413Z,86.92
2023-04-18T00:50:00.124Z,87.28
2023-04-18T00:52:26.664Z,87.42
2023-04-18T00:54:53.795Z,87.33
2023-04-18T00:57:20.298Z,87.63
2023-04-18T00:59:46.851Z,87.47
2023-04-18T01:02:13.436Z,87.15
2023-04-18T01:04:39.995Z,87.37
2023-04-18T01:07:06.590Z,87.67
2023-04-18T01:09:33.108Z,87.83
2023-04-18T01:11:59.617Z,87.93
2023-04-18T01:14:26.181Z,88.50
2023-04-18T01:16:52.682Z,88.27
2023-04-18T01:19:19.281Z,88.52
2023-04-18T01:21:45.842Z,88.88
2023-04-18T01:24:14.027Z,88.93
2023-04-18T01:26:41.053Z,89.17
2023-04-18T01:29:07.636Z,88.96
2023-04-18T01:31:37.616Z,88.85
2023-04-18T01:34:04.644Z,89.23
2023-04-18T01:36:31.414Z,89.22
2023-04-18T01:38:58.591Z,89.76
2023-04-18T01:41:25.146Z,90.33
2023-04-18T01:43:51.649Z,90.78
2023-04-18T01:46:18.474Z,91.07
2023-04-18T01:48:45.102Z,90.67
2023-04-18T01:51:11.645Z,90.76
2023-04-18T01:53:38.195Z,90.24
2023-04-18T01:56:04.896Z,90.20
2023-04-18T01:58:31.450Z,90.01
2023-04-18T02:00:58.005Z,90.55
2023-04-18T02:03:25.097Z,90.57
2023-04-18T02:05:51.777Z,90.31
2023-04-18T02:08:18.301Z,90.69
2023-04-18T02:10:44.856Z,90.47
2023-04-18T02:13:11.364Z,90.56
2023-04-18T02:15:37.904Z,90.55
2023-04-18T02:18:04.473Z,90.94
2023-04-18T02:20:31.046Z,91.22
2023-04-18T02:22:58.230Z,91.09
2023-04-18T02:25:24.863Z,91.03
2023-04-18T02:27:51.424Z,91.39
2023-04-18T02:30:17.973Z,91.40
2023-04-18T02:32:44.539Z,91.33
2023-04-18T02:35:11.329Z,91.52
2023-04-18T02:37:37.929Z,91.70
2023-04-18T02:40:04.813Z,92.21
2023-04-18T02:42:31.572Z,92.14
2023-04-18T02:44:58.119Z,91.95
2023-04-18T02:47:24.734Z,92.22
2023-04-18T02:49:51.282Z,92.35
2023-04-18T02:52:17.807Z,92.34
2023-04-18T02:54:44.363Z,92.68
2023-04-18T02:57:10.905Z,92.69
2023-04-18T02:59:37.424Z,92.84
2023-04-18T03:02:04.056Z,92.70
2023-04-18T03:04:30.667Z,92.91
2023-04-18T03:06:57.301Z,93.05
2023-04-18T03:09:23.956Z,92.89
2023-04-18T03:11:50.543Z,92.65
2023-04-18T03:14:17.073Z,93.00
2023-04-18T03:16:43.587Z,92.95
2023-04-18T03:19:10.112Z,93.07
2023-04-18T03:21:36.620Z,92.88
2023-04-18T03:24:03.192Z,92.99
2023-04-18T03:26:29.751Z,92.90
2023-04-18T03:28:56.274Z,93.07
2023-04-18T03:31:22.880Z,93.15
2023-04-18T03:33:49.464Z,93.09
2023-04-18T03:36:15.953Z,93.28
2023-04-18T03:38:42.460Z,93.27
2023-04-18T03:41:09.018Z,92.98
2023-04-18T03:43:35.520Z,93.07
2023-04-18T03:46:02.398Z,93.05
2023-04-18T03:48:29.099Z,93.31
2023-04-18T03:50:55.639Z,93.01
2023-04-18T03:53:22.146Z,93.02
2023-04-18T03:55:48.724Z,93.25
2023-04-18T03:58:15.297Z,93.46
2023-04-18T04:00:41.810Z,93.66
2023-04-18T04:03:08.516Z,93.54
2023-04-18T04:05:35.163Z,93.67
2023-04-18T04:08:01.701Z,93.08
2023-04-18T04:10:28.222Z,92.78
2023-04-18T04:12:54.775Z,93.27
2023-04-18T04:15:21.340Z,93.12
2023-04-18T04:17:47.921Z,93.14
2023-04-18T04:20:14.528Z,92.85
2023-04-18T04:22:41.050Z,92.89
2023-04-18T04:25:07.956Z,92.69
2023-04-18T04:27:34.464Z,92.81
2023-04-18T04:30:01.048Z,92.73
2023-04-18T04:32:27.650Z,92.90
2023-04-18T04:34:54.192Z,93.08
2023-04-18T04:37:20.774Z,92.94
2023-04-18T04:39:47.306Z,92.97
2023-04-18T04:42:13.861Z,92.70
2023-04-18T04:44:40.452Z,92.64
2023-04-18T04:47:07.423Z,92.43
2023-04-18T04:49:33.986Z,92.68
2023-04-18T04:52:01.899Z,92.56
2023-04-18T04:54:28.638Z,92.52
2023-04-18T04:56:55.129Z,91.50
2023-04-18T04:59:21.653Z,91.39
2023-04-18T05:01:48.335Z,91.20
2023-04-18T05:04:15.301Z,91.09
2023-04-18T05:06:42.112Z,91.13
2023-04-18T05:09:08.683Z,91.31
2023-04-18T05:11:35.233Z,90.60
2023-04-18T05:14:01.831Z,89.95
2023-04-18T05:16:28.441Z,90.06
2023-04-18T05:18:54.987Z,89.86
2023-04-18T05:21:21.541Z,89.80
2023-04-18T05:23:48.146Z,89.46
2023-04-18T05:26:14.721Z,89.16
2023-04-18T05:28:41.261Z,89.09
2023-04-18T05:31:07.868Z,88.75
2023-04-18T05:33:34.441Z,88.96
2023-04-18T05:36:00.998Z,88.25
2023-04-18T05:38:27.557Z,87.92
2023-04-18T05:40:54.094Z,87.23
2023-04-18T05:43:20.628Z,86.85
2023-04-18T05:45:47.482Z,86.80
2023-04-18T05:48:14.212Z,86.41
2023-04-18T05:50:40.845Z,86.01
2023-04-18T05:53:07.400Z,85.67
2023-04-18T05:55:33.904Z,85.18
2023-04-18T05:58:00.457Z,85.02
2023-04-18T06:00:27.542Z,84.64
2023-04-18T06:02:54.249Z,84.18
2023-04-18T06:05:21.234Z,83.02
2023-04-18T06:07:48.059Z,83.65
2023-04-18T06:10:14.603Z,83.75
2023-04-18T06:12:41.338Z,82.92
2023-04-18T06:15:08.527Z,82.15
2023-04-18T06:17:35.130Z,82.10
2023-04-18T06:20:02.037Z,80.92
2023-04-18T06:22:28.587Z,79.40
2023-04-18T06:24:55.076Z,79.19
2023-04-18T06:27:30.462Z,78.21
2023-04-18T06:29:58.305Z,77.11
2023-04-18T06:32:24.879Z,77.15
2023-04-18T06:34:51.516Z,76.68
2023-04-18T06:37:18.036Z,75.69
2023-04-18T06:39:44.569Z,74.91
2023-04-18T06:42:11.186Z,74.51
2023-04-18T06:44:37.729Z,74.41
2023-04-18T06:47:04.240Z,74.58
2023-04-18T06:49:30.774Z,73.43
2023-04-18T06:51:57.299Z,73.77
2023-04-18T06:54:23.951Z,73.11
2023-04-18T06:56:50.578Z,72.51
2023-04-18T06:59:17.329Z,72.28
2023-04-18T07:01:43.930Z,71.41
2023-04-18T07:04:10.834Z,71.45
2023-04-18T07:06:37.558Z,71.50
2023-04-18T07:09:04.097Z,70.95
2023-04-18T07:11:30.747Z,70.15
2023-04-18T07:13:57.351Z,70.79
2023-04-18T07:16:24.014Z,70.90
2023-04-18T07:18:50.688Z,70.57
2023-04-18T07:21:17.574Z,69.92
2023-04-18T07:23:44.101Z,70.02
2023-04-18T07:26:10.684Z,70.86
2023-04-18T07:28:37.282Z,69.86
2023-04-18T07:31:03.957Z,71.18
2023-04-18T07:33:30.585Z,71.29
2023-04-18T07:35:57.261Z,71.73
2023-04-18T07:38:23.810Z,71.79
2023-04-18T07:40:57.329Z,71.64
2023-04-18T07:43:23.993Z,71.45
2023-04-18T07:45:51.544Z,71.58
2023-04-18T07:48:18.185Z,71.67
2023-04-18T07:50:44.759Z,70.45
2023-04-18T07:53:11.317Z,71.16
2023-04-18T07:55:37.875Z,70.85
2023-04-18T07:58:04.399Z,71.13
2023-04-18T08:00:31.008Z,70.81
2023-04-18T08:02:57.629Z,70.80
2023-04-18T08:05:24.443Z,69.50
2023-04-18T08:07:51.054Z,69.18
2023-04-18T08:10:17.636Z,68.81
2023-04-18T08:12:44.146Z,69.32
2023-04-18T08:15:11.191Z,69.75
2023-04-18T08:17:37.886Z,69.12
2023-04-18T08:20:05.028Z,69.79
2023-04-18T08:22:31.545Z,68.97
2023-04-18T08:25:04.914Z,68.78
2023-04-18T08:27:32.259Z,67.34
2023-04-18T08:29:58.832Z,67.65
2023-04-18T08:32:25.726Z,67.44
2023-04-18T08:34:52.319Z,66.57
2023-04-18T08:37:18.908Z,66.58
2023-04-18T08:39:45.426Z,65.11
2023-04-18T08:42:12.044Z,65.17
2023-04-18T08:44:38.562Z,64.76
2023-04-18T08:47:07.628Z,65.92
2023-04-18T08:49:34.180Z,65.06
2023-04-18T08:52:00.752Z,65.13
2023-04-18T08:54:27.461Z,65.39
2023-04-18T08:57:06.785Z,66.05
2023-04-18T08:59:33.374Z,66.60
2023-04-18T09:01:59.954Z,66.19
2023-04-18T09:04:37.114Z,66.68
2023-04-18T09:07:04.659Z,66.71
2023-04-18T09:09:50.625Z,66.80
2023-04-18T09:12:18.359Z,66.57
2023-04-18T09:15:14.917Z,67.19
2023-04-18T09:17:45.738Z,67.03
2023-04-18T09:20:12.978Z,67.04
2023-04-18T09:22:49.995Z,67.30
2023-04-18T09:25:33.641Z,68.02
2023-04-18T09:28:00.581Z,68.90
2023-04-18T09:30:36.329Z,69.84
2023-04-18T09:33:04.230Z,68.98
2023-04-18T09:35:30.869Z,69.33
2023-04-18T09:37:57.416Z,69.30
2023-04-18T09:40:23.999Z,69.70
2023-04-18T09:42:51.856Z,69.72
2023-04-18T09:45:18.402Z,70.30
2023-04-18T09:47:45.018Z,70.01
2023-04-18T09:50:11.673Z,70.83
2023-04-18T09:52:39.769Z,71.32
2023-04-18T09:55:10.807Z,70.72
2023-04-18T09:57:37.856Z,71.65
2023-04-18T10:00:04.373Z,70.10
2023-04-18T10:02:34.247Z,70.43
2023-04-18T10:05:00.934Z,69.84
2023-04-18T10:07:27.553Z,70.32
2023-04-18T10:09:54.085Z,70.22
2023-04-18T10:12:20.684Z,70.10
2023-04-18T10:14:47.219Z,69.62
2023-04-18T10:17:14.583Z,69.49
2023-04-18T10:19:41.110Z,68.53
2023-04-18T10:22:07.806Z,68.35
2023-04-18T10:24:49.684Z,68.14
2023-04-18T10:27:16.902Z,66.79
2023-04-18T10:29:53.464Z,66.28
2023-04-18T10:32:22.313Z,65.92
2023-04-18T10:34:55.304Z,66.46
2023-04-18T10:37:21.894Z,66.64
2023-04-18T10:39:59.125Z,65.46
2023-04-18T10:42:47.488Z,65.38
2023-04-18T10:45:23.790Z,64.90
2023-04-18T10:47:50.514Z,64.32
2023-04-18T10:50:17.217Z,64.97
2023-04-18T10:52:43.809Z,64.47
2023-04-18T10:55:10.742Z,63.95
2023-04-18T10:57:41.426Z,64.49
2023-04-18T11:00:09.145Z,64.19
2023-04-18T11:02:35.796Z,63.89
2023-04-18T11:05:03.555Z,63.58
2023-04-18T11:07:43.503Z,64.03
2023-04-18T11:10:10.119Z,63.86
2023-04-18T11:12:38.027Z,64.56
2023-04-18T11:15:16.405Z,63.49
2023-04-18T11:17:43.161Z,63.77
2023-04-18T11:20:13.702Z,63.26
2023-04-18T11:22:50.637Z,64.05
2023-04-18T11:25:17.821Z,64.79
2023-04-18T11:27:48.295Z,65.27
2023-04-18T11:30:15.338Z,64.91
2023-04-18T11:32:41.985Z,65.31
2023-04-18T11:35:09.453Z,64.58
2023-04-18T11:37:36.809Z,65.16
2023-04-18T11:40:04.477Z,64.20
2023-04-18T11:42:34.010Z,64.74
2023-04-18T11:45:01.042Z,64.34
2023-04-18T11:47:32.823Z,63.66
2023-04-18T11:50:03.298Z,62.69
2023-04-18T11:52:30.806Z,62.42
2023-04-18T11:54:59.129Z,62.19
2023-04-18T11:57:26.931Z,63.13
2023-04-18T11:59:56.831Z,62.50
2023-04-18T12:02:43.566Z,61.05
2023-04-18T12:05:10.685Z,61.73
2023-04-18T12:07:41.759Z,61.23
2023-04-18T12:10:28.946Z,61.36
2023-04-18T12:12:56.992Z,61.24
2023-04-18T12:15:23.892Z,62.06
2023-04-18T12:17:50.499Z,60.75
2023-04-18T12:20:17.121Z,60.79
2023-04-18T12:22:45.726Z,60.37
2023-04-18T12:25:25.266Z,60.02
2023-04-18T12:27:58.503Z,59.95
2023-04-18T12:30:33.383Z,59.04
2023-04-18T12:33:02.122Z,58.23
2023-04-18T12:35:29.321Z,57.62
2023-04-18T12:37:56.637Z,56.99
2023-04-18T12:40:23.441Z,57.25
2023-04-18T12:42:50.595Z,55.82
2023-04-18T12:45:17.715Z,55.03
2023-04-18T12:47:45.319Z,55.28
2023-04-18T12:50:19.738Z,55.28
2023-04-18T12:52:46.498Z,54.11
2023-04-18T12:55:13.235Z,52.60
2023-04-18T12:57:39.992Z,52.11
2023-04-18T13:00:07.027Z,50.59
2023-04-18T13:02:33.640Z,50.97
2023-04-18T13:05:00.399Z,51.08
2023-04-18T13:07:27.047Z,51.31
2023-04-18T13:09:53.679Z,51.49
2023-04-18T13:12:20.245Z,52.14
2023-04-18T13:14:46.825Z,51.80
2023-04-18T13:17:13.377Z,51.02
2023-04-18T13:19:39.898Z,50.85
2023-04-18T13:22:06.408Z,50.27
2023-04-18T13:24:32.930Z,49.88
2023-04-18T13:27:01.274Z,49.63
2023-04-18T13:29:28.213Z,47.88
2023-04-18T13:31:54.816Z,48.49
2023-04-18T13:34:21.361Z,48.60
2023-04-18T13:36:47.912Z,48.89
2023-04-18T13:39:14.972Z,49.81
2023-04-18T13:41:41.720Z,50.15
2023-04-18T13:44:08.318Z,50.31
2023-04-18T13:46:35.023Z,51.27
2023-04-18T13:49:01.687Z,50.15
2023-04-18T13:51:28.279Z,47.70
2023-04-18T13:53:54.819Z,48.71
2023-04-18T13:56:21.407Z,49.74
2023-04-18T13:58:47.972Z,50.01
2023-04-18T14:01:14.541Z,50.73
2023-04-18T14:03:43.568Z,52.18
2023-04-18T14:06:10.502Z,52.64
2023-04-18T14:08:37.004Z,52.77
2023-04-18T14:11:03.551Z,54.73
2023-04-18T14:13:30.245Z,54.94
2023-04-18T14:15:56.870Z,55.14
2023-04-18T14:18:23.477Z,55.88
2023-04-18T14:20:50.517Z,55.74
2023-04-18T14:23:17.073Z,56.03
2023-04-18T14:25:43.632Z,55.60
2023-04-18T14:28:11.185Z,54.15
2023-04-18T14:30:38.512Z,50.96
2023-04-18T14:33:05.282Z,45.80
2023-04-18T14:35:32.129Z,45.61
2023-04-18T14:37:58.676Z,45.79
2023-04-18T14:40:25.263Z,47.33
2023-04-18T14:42:51.874Z,45.64
2023-04-18T14:45:18.423Z,43.36
2023-04-18T14:47:45.021Z,46.74
2023-04-18T14:50:11.643Z,49.62
2023-04-18T14:52:38.903Z,51.73
2023-04-18T14:55:06.676Z,53.72
2023-04-18T14:57:36.369Z,54.68
2023-04-18T15:00:07.017Z,55.81
2023-04-18T15:02:33.929Z,56.45
2023-04-18T15:05:00.777Z,57.36
2023-04-18T15:07:27.443Z,57.28
2023-04-18T15:09:53.997Z,56.53
2023-04-18T15:12:20.686Z,56.78
2023-04-18T15:14:47.317Z,57.42
2023-04-18T15:17:13.953Z,57.41
2023-04-18T15:19:40.508Z,56.35
2023-04-18T15:22:07.118Z,55.53
2023-04-18T15:24:33.634Z,55.79
2023-04-18T15:27:00.192Z,55.69
2023-04-18T15:29:26.786Z,56.64
2023-04-18T15:31:53.477Z,56.03
2023-04-18T15:34:20.125Z,55.94
2023-04-18T15:36:49.688Z,56.31
2023-04-18T15:39:16.083Z,55.34
2023-04-18T15:41:42.662Z,48.09
2023-04-18T15:44:09.344Z,47.82
2023-04-18T15:46:36.450Z,50.51
2023-04-18T15:49:03.022Z,54.03
2023-04-18T15:51:29.635Z,53.54
2023-04-18T15:53:56.289Z,52.86
2023-04-18T15:56:25.149Z,51.53
2023-04-18T15:58:51.871Z,48.52
2023-04-18T16:01:18.419Z,46.77
2023-04-18T16:03:45.162Z,47.80
2023-04-18T16:06:12.839Z,49.07
2023-04-18T16:08:39.403Z,45.39
2023-04-18T16:11:06.538Z,40.54
2023-04-18T16:13:33.332Z,40.48
2023-04-18T16:15:59.982Z,41.11
2023-04-18T16:18:26.565Z,45.10
2023-04-18T16:20:53.111Z,45.77
2023-04-18T16:23:19.694Z,49.63
2023-04-18T16:25:46.248Z,51.06
2023-04-18T16:28:12.872Z,53.85
2023-04-18T16:30:39.473Z,56.10
2023-04-18T16:33:06.127Z,57.36
2023-04-18T16:35:32.749Z,59.06
2023-04-18T16:37:59.342Z,60.39
2023-04-18T16:40:26.061Z,61.05
2023-04-18T16:42:52.662Z,62.12
2023-04-18T16:45:19.211Z,61.96
2023-04-18T16:47:45.789Z,62.70
2023-04-18T16:50:12.460Z,63.46
2023-04-18T16:52:39.109Z,63.33
2023-04-18T16:55:05.922Z,64.26
2023-04-18T16:57:32.539Z,64.24
2023-04-18T16:59:59.162Z,64.37
2023-04-18T17:02:25.860Z,64.34
2023-04-18T17:04:52.544Z,64.79
2023-04-18T17:07:19.201Z,65.20
2023-04-18T17:09:45.724Z,65.89
2023-04-18T17:12:12.255Z,65.33
2023-04-18T17:14:38.766Z,66.11
2023-04-18T17:17:06.007Z,65.84
2023-04-18T17:19:32.530Z,65.99
2023-04-18T17:21:59.078Z,65.95
2023-04-18T17:24:25.647Z,66.15
2023-04-18T17:26:52.153Z,66.23
2023-04-18T17:29:18.705Z,66.55
2023-04-18T17:31:45.335Z,67.03
2023-04-18T17:34:11.895Z,67.01
2023-04-18T17:36:38.619Z,67.31
2023-04-18T17:39:05.183Z,67.21
2023-04-18T17:41:32.173Z,67.46
2023-04-18T17:43:58.982Z,67.03
2023-04-18T17:46:25.594Z,67.40
2023-04-18T17:48:52.132Z,67.47
2023-04-18T17:51:18.676Z,67.46
2023-04-18T17:53:45.264Z,67.46
2023-04-18T17:56:11.795Z,67.90
2023-04-18T17:58:38.881Z,68.22
2023-04-18T18:01:14.652Z,68.65
2023-04-18T18:03:41.338Z,68.77
2023-04-18T18:06:07.945Z,69.00
2023-04-18T18:08:34.472Z,69.05
2023-04-18T18:11:01.241Z,69.62
2023-04-18T18:13:27.786Z,69.67
2023-04-18T18:15:54.310Z,69.62
2023-04-18T18:18:20.832Z,69.70
2023-04-18T18:20:47.371Z,70.05
2023-04-18T18:23:14.896Z,71.14
2023-04-18T18:25:41.517Z,71.22
2023-04-18T18:28:08.071Z,70.68
2023-04-18T18:30:34.635Z,71.50
2023-04-18T18:33:01.419Z,71.83
2023-04-18T18:35:28.058Z,72.17
2023-04-18T18:37:54.612Z,72.37
2023-04-18T18:40:21.294Z,72.67
2023-04-18T18:42:47.888Z,73.20
2023-04-18T18:45:14.402Z,73.59
2023-04-18T18:47:40.961Z,73.73
2023-04-18T18:50:07.728Z,73.61
2023-04-18T18:52:34.286Z,74.88
2023-04-18T18:55:00.822Z,75.49
2023-04-18T18:57:27.611Z,74.73
2023-04-18T18:59:55.804Z,75.89
2023-04-18T19:02:22.909Z,75.88
2023-04-18T19:04:49.912Z,77.02
2023-04-18T19:07:16.477Z,77.73
2023-04-18T19:09:43.013Z,76.94
2023-04-18T19:12:09.662Z,77.36
2023-04-18T19:14:36.244Z,77.65
2023-04-18T19:17:02.780Z,77.92
2023-04-18T19:19:29.358Z,78.43
2023-04-18T19:21:55.866Z,77.91
2023-04-18T19:24:22.421Z,79.31
2023-04-18T19:26:48.972Z,79.50
2023-04-18T19:29:15.680Z,78.94
2023-04-18T19:31:42.388Z,78.66
2023-04-18T19:34:08.991Z,80.17
2023-04-18T19:36:35.530Z,80.06
2023-04-18T19:39:02.097Z,80.11
2023-04-18T19:41:28.650Z,80.76
2023-04-18T19:43:55.196Z,81.12
2023-04-18T19:46:21.776Z,80.87
2023-04-18T19:48:48.299Z,80.73
2023-04-18T19:51:14.842Z,79.95
2023-04-18T19:53:41.361Z,80.48
2023-04-18T19:56:07.874Z,80.74
2023-04-18T19:58:41.287Z,80.64
2023-04-18T20:01:07.905Z,81.50
2023-04-18T20:03:34.898Z,80.98
2023-04-18T20:06:01.583Z,81.84
2023-04-18T20:08:28.153Z,81.30
2023-04-18T20:10:54.690Z,81.22
2023-04-18T20:13:21.216Z,81.48
2023-04-18T20:15:47.755Z,81.18
2023-04-18T20:18:14.269Z,81.06
2023-04-18T20:20:40.845Z,80.38
2023-04-18T20:23:07.418Z,80.83
2023-04-18T20:25:33.977Z,80.93
2023-04-18T20:28:00.930Z,80.99
2023-04-18T20:30:27.476Z,80.18
2023-04-18T20:32:54.091Z,80.13
2023-04-18T20:35:20.672Z,79.80
2023-04-18T20:37:47.199Z,79.26
2023-04-18T20:40:13.783Z,79.71
2023-04-18T20:42:40.434Z,79.71
2023-04-18T20:45:07.487Z,79.96
2023-04-18T20:47:34.051Z,81.03
2023-04-18T20:50:00.603Z,81.65
2023-04-18T20:52:27.146Z,81.28
2023-04-18T20:54:53.693Z,81.32
2023-04-18T20:57:20.281Z,81.76
2023-04-18T20:59:46.816Z,81.39
2023-04-18T21:02:13.469Z,81.68
2023-04-18T21:04:40.282Z,82.09
2023-04-18T21:07:06.928Z,82.14
2023-04-18T21:09:33.504Z,81.93
2023-04-18T21:12:00.025Z,82.69
2023-04-18T21:14:26.579Z,82.46
2023-04-18T21:16:53.149Z,82.86
2023-04-18T21:19:19.670Z,82.80
2023-04-18T21:21:46.198Z,82.31
2023-04-18T21:24:12.773Z,81.95
2023-04-18T21:26:39.398Z,81.57
2023-04-18T21:29:05.992Z,80.83
2023-04-18T21:31:33.196Z,81.17
2023-04-18T21:34:03.446Z,80.54
2023-04-18T21:36:30.125Z,80.61
2023-04-18T21:38:58.048Z,81.24
2023-04-18T21:41:24.754Z,81.36
2023-04-18T21:43:51.382Z,80.50
2023-04-18T21:46:18.225Z,81.09
2023-04-18T21:48:46.138Z,82.15
2023-04-18T21:51:14.379Z,81.18
2023-04-18T21:53:41.086Z,81.26
2023-04-18T21:56:07.939Z,81.22
2023-04-18T21:58:34.506Z,80.72
2023-04-18T22:01:01.085Z,81.03
2023-04-18T22:03:27.868Z,81.47
2023-04-18T22:05:57.679Z,81.73
2023-04-18T22:08:24.884Z,81.70
2023-04-18T22:10:55.178Z,81.25
2023-04-18T22:13:22.456Z,81.28
2023-04-18T22:15:48.964Z,81.38
2023-04-18T22:18:15.595Z,81.75
2023-04-18T22:20:42.105Z,81.61
2023-04-18T22:23:08.688Z,81.82
2023-04-18T22:25:35.270Z,82.12
2023-04-18T22:28:02.294Z,82.11
2023-04-18T22:30:28.848Z,81.88
2023-04-18T22:32:55.468Z,81.83
2023-04-18T22:35:22.081Z,82.49
2023-04-18T22:37:48.687Z,82.16
2023-04-18T22:40:15.362Z,82.17
2023-04-18T22:42:41.947Z,82.01
2023-04-18T22:45:09.011Z,81.92
2023-04-18T22:47:35.560Z,82.33
2023-04-18T22:50:02.279Z,82.55
2023-04-18T22:52:29.225Z,82.64
2023-04-18T22:54:55.803Z,82.57
2023-04-18T22:57:22.359Z,82.72
2023-04-18T22:59:48.904Z,82.90
2023-04-18T23:02:15.530Z,83.07
2023-04-18T23:04:42.260Z,82.96
2023-04-18T23:07:09.003Z,83.53
2023-04-18T23:09:35.600Z,83.03
2023-04-18T23:12:02.164Z,83.03
2023-04-18T23:14:29.220Z,82.89
2023-04-18T23:16:55.786Z,82.87
2023-04-18T23:19:22.401Z,82.84
2023-04-18T23:21:49.746Z,81.92
2023-04-18T23:24:16.571Z,81.71
2023-04-18T23:26:43.189Z,82.36
2023-04-18T23:29:09.717Z,82.19
2023-04-18T23:31:36.344Z,82.45
2023-04-18T23:34:02.921Z,82.02
2023-04-18T23:36:29.459Z,81.82
2023-04-18T23:38:55.974Z,81.46
2023-04-18T23:41:22.538Z,81.90
2023-04-18T23:43:49.118Z,81.44
2023-04-18T23:46:15.783Z,81.09
2023-04-18T23:48:42.394Z,80.50
2023-04-18T23:51:08.897Z,80.52
2023-04-18T23:53:35.466Z,79.96
2023-04-18T23:56:01.992Z,79.98
2023-04-18T23:58:28.536Z,80.36
